sensor_id;sensor_type;location;lat;lon;timestamp;P1;durP1;ratioP1;P2;durP2;ratioP2
14858;SDS011;7521;51.700;6.874;2023-03-01T00:02:48;8.57;;;5.95;;
14858;SDS011;7521;51.700;6.874;2023-03-01T00:05:53;10.10;;;6.10;;
14858;SDS011;7521;51.700;6.874;2023-03-01T00:08:58;8.52;;;6.60;;
14858;SDS011;7521;51.700;6.874;2023-03-01T00:12:03;14.03;;;6.43;;
14858;SDS011;7521;51.700;6.874;2023-03-01T00:15:09;8.03;;;6.43;;
14858;SDS011;7521;51.700;6.874;2023-03-01T00:18:14;7.35;;;5.63;;
14858;SDS011;7521;51.700;6.874;2023-03-01T00:21:19;11.02;;;6.30;;
14858;SDS011;7521;51.700;6.874;2023-03-01T00:24:24;8.00;;;5.70;;
14858;SDS011;7521;51.700;6.874;2023-03-01T00:27:30;8.38;;;5.90;;
14858;SDS011;7521;51.700;6.874;2023-03-01T00:30:35;8.88;;;6.38;;
14858;SDS011;7521;51.700;6.874;2023-03-01T00:33:40;9.60;;;5.95;;
14858;SDS011;7521;51.700;6.874;2023-03-01T00:36:45;9.87;;;5.63;;
14858;SDS011;7521;51.700;6.874;2023-03-01T00:39:51;11.83;;;6.50;;
14858;SDS011;7521;51.700;6.874;2023-03-01T00:42:56;8.70;;;6.38;;
14858;SDS011;7521;51.700;6.874;2023-03-01T00:46:04;9.85;;;6.18;;
14858;SDS011;7521;51.700;6.874;2023-03-01T00:49:10;11.50;;;6.47;;
14858;SDS011;7521;51.700;6.874;2023-03-01T00:52:16;10.00;;;6.10;;
14858;SDS011;7521;51.700;6.874;2023-03-01T00:55:21;9.10;;;6.50;;
14858;SDS011;7521;51.700;6.874;2023-03-01T00:58:26;8.20;;;6.30;;
14858;SDS011;7521;51.700;6.874;2023-03-01T01:01:32;9.67;;;6.20;;
14858;SDS011;7521;51.700;6.874;2023-03-01T01:04:37;8.05;;;6.00;;
14858;SDS011;7521;51.700;6.874;2023-03-01T01:07:42;10.17;;;6.00;;
14858;SDS011;7521;51.700;6.874;2023-03-01T01:10:47;10.07;;;6.85;;
14858;SDS011;7521;51.700;6.874;2023-03-01T01:13:52;10.30;;;6.88;;
14858;SDS011;7521;51.700;6.874;2023-03-01T01:16:58;12.93;;;6.97;;
14858;SDS011;7521;51.700;6.874;2023-03-01T01:20:03;9.70;;;6.50;;
14858;SDS011;7521;51.700;6.874;2023-03-01T01:23:08;11.47;;;6.87;;
14858;SDS011;7521;51.700;6.874;2023-03-01T01:26:15;9.83;;;6.47;;
14858;SDS011;7521;51.700;6.874;2023-03-01T01:29:21;9.97;;;6.80;;
14858;SDS011;7521;51.700;6.874;2023-03-01T01:32:26;10.67;;;7.03;;
14858;SDS011;7521;51.700;6.874;2023-03-01T01:35:31;11.27;;;6.75;;
14858;SDS011;7521;51.700;6.874;2023-03-01T01:38:37;10.77;;;7.18;;
14858;SDS011;7521;51.700;6.874;2023-03-01T01:41:42;10.90;;;7.20;;
14858;SDS011;7521;51.700;6.874;2023-03-01T01:44:47;8.70;;;6.07;;
14858;SDS011;7521;51.700;6.874;2023-03-01T01:47:52;9.07;;;6.70;;
14858;SDS011;7521;51.700;6.874;2023-03-01T01:50:59;9.37;;;6.70;;
14858;SDS011;7521;51.700;6.874;2023-03-01T01:54:06;11.53;;;6.50;;
14858;SDS011;7521;51.700;6.874;2023-03-01T01:57:16;10.90;;;7.43;;
14858;SDS011;7521;51.700;6.874;2023-03-01T02:00:24;12.33;;;7.03;;
14858;SDS011;7521;51.700;6.874;2023-03-01T02:03:31;9.30;;;6.93;;
14858;SDS011;7521;51.700;6.874;2023-03-01T02:06:45;11.37;;;7.13;;
14858;SDS011;7521;51.700;6.874;2023-03-01T02:09:53;11.03;;;6.67;;
14858;SDS011;7521;51.700;6.874;2023-03-01T02:12:58;10.27;;;6.95;;
14858;SDS011;7521;51.700;6.874;2023-03-01T02:16:04;11.75;;;7.30;;
14858;SDS011;7521;51.700;6.874;2023-03-01T02:19:11;12.03;;;7.40;;
14858;SDS011;7521;51.700;6.874;2023-03-01T02:22:23;7.63;;;6.00;;
14858;SDS011;7521;51.700;6.874;2023-03-01T02:25:32;14.83;;;7.37;;
14858;SDS011;7521;51.700;6.874;2023-03-01T02:28:39;10.03;;;6.93;;
14858;SDS011;7521;51.700;6.874;2023-03-01T02:31:45;12.63;;;6.73;;
14858;SDS011;7521;51.700;6.874;2023-03-01T02:34:51;11.52;;;7.13;;
14858;SDS011;7521;51.700;6.874;2023-03-01T02:37:58;12.47;;;7.37;;
14858;SDS011;7521;51.700;6.874;2023-03-01T02:41:06;10.57;;;7.47;;
14858;SDS011;7521;51.700;6.874;2023-03-01T02:44:12;8.50;;;6.70;;
14858;SDS011;7521;51.700;6.874;2023-03-01T02:47:17;11.30;;;7.50;;
14858;SDS011;7521;51.700;6.874;2023-03-01T02:53:50;11.57;;;7.60;;
14858;SDS011;7521;51.700;6.874;2023-03-01T02:56:58;9.87;;;6.53;;
14858;SDS011;7521;51.700;6.874;2023-03-01T03:00:05;11.73;;;7.50;;
14858;SDS011;7521;51.700;6.874;2023-03-01T03:03:19;12.60;;;7.87;;
14858;SDS011;7521;51.700;6.874;2023-03-01T03:06:24;11.43;;;7.30;;
14858;SDS011;7521;51.700;6.874;2023-03-01T03:09:29;13.57;;;7.95;;
14858;SDS011;7521;51.700;6.874;2023-03-01T03:12:35;11.83;;;7.53;;
14858;SDS011;7521;51.700;6.874;2023-03-01T03:15:40;11.38;;;6.90;;
14858;SDS011;7521;51.700;6.874;2023-03-01T03:18:46;14.73;;;7.70;;
14858;SDS011;7521;51.700;6.874;2023-03-01T03:21:51;11.70;;;7.43;;
14858;SDS011;7521;51.700;6.874;2023-03-01T03:24:56;12.30;;;7.45;;
14858;SDS011;7521;51.700;6.874;2023-03-01T03:28:02;13.52;;;7.85;;
14858;SDS011;7521;51.700;6.874;2023-03-01T03:31:07;11.17;;;7.60;;
14858;SDS011;7521;51.700;6.874;2023-03-01T03:34:12;11.00;;;7.33;;
14858;SDS011;7521;51.700;6.874;2023-03-01T03:37:22;11.07;;;7.40;;
14858;SDS011;7521;51.700;6.874;2023-03-01T03:40:47;12.63;;;7.40;;
14858;SDS011;7521;51.700;6.874;2023-03-01T03:43:53;11.43;;;7.87;;
14858;SDS011;7521;51.700;6.874;2023-03-01T03:46:58;13.13;;;8.40;;
14858;SDS011;7521;51.700;6.874;2023-03-01T03:50:03;12.73;;;7.65;;
14858;SDS011;7521;51.700;6.874;2023-03-01T03:53:10;12.17;;;8.07;;
14858;SDS011;7521;51.700;6.874;2023-03-01T03:56:15;14.90;;;7.77;;
14858;SDS011;7521;51.700;6.874;2023-03-01T03:59:20;14.10;;;7.72;;
14858;SDS011;7521;51.700;6.874;2023-03-01T04:02:26;15.00;;;8.27;;
14858;SDS011;7521;51.700;6.874;2023-03-01T04:05:31;11.68;;;7.57;;
14858;SDS011;7521;51.700;6.874;2023-03-01T04:08:36;13.32;;;8.07;;
14858;SDS011;7521;51.700;6.874;2023-03-01T04:11:41;15.55;;;7.63;;
14858;SDS011;7521;51.700;6.874;2023-03-01T04:14:47;13.57;;;8.00;;
14858;SDS011;7521;51.700;6.874;2023-03-01T04:17:52;12.57;;;7.20;;
14858;SDS011;7521;51.700;6.874;2023-03-01T04:20:58;13.73;;;8.27;;
14858;SDS011;7521;51.700;6.874;2023-03-01T04:24:03;17.25;;;8.90;;
14858;SDS011;7521;51.700;6.874;2023-03-01T04:27:09;14.57;;;7.70;;
14858;SDS011;7521;51.700;6.874;2023-03-01T04:30:14;15.93;;;8.83;;
14858;SDS011;7521;51.700;6.874;2023-03-01T04:33:19;14.07;;;8.17;;
14858;SDS011;7521;51.700;6.874;2023-03-01T04:36:25;27.40;;;9.43;;
14858;SDS011;7521;51.700;6.874;2023-03-01T04:39:31;18.30;;;8.23;;
14858;SDS011;7521;51.700;6.874;2023-03-01T04:42:36;15.48;;;8.25;;
14858;SDS011;7521;51.700;6.874;2023-03-01T04:45:41;20.80;;;8.85;;
14858;SDS011;7521;51.700;6.874;2023-03-01T04:48:47;16.13;;;8.50;;
14858;SDS011;7521;51.700;6.874;2023-03-01T04:51:52;13.10;;;8.27;;
14858;SDS011;7521;51.700;6.874;2023-03-01T04:54:57;13.38;;;9.30;;
14858;SDS011;7521;51.700;6.874;2023-03-01T04:58:02;17.80;;;9.10;;
14858;SDS011;7521;51.700;6.874;2023-03-01T05:01:08;11.95;;;8.77;;
14858;SDS011;7521;51.700;6.874;2023-03-01T05:04:19;15.87;;;8.33;;
14858;SDS011;7521;51.700;6.874;2023-03-01T05:07:25;15.85;;;8.65;;
14858;SDS011;7521;51.700;6.874;2023-03-01T05:10:31;14.53;;;9.03;;
14858;SDS011;7521;51.700;6.874;2023-03-01T05:13:37;15.03;;;8.60;;
14858;SDS011;7521;51.700;6.874;2023-03-01T05:16:43;14.20;;;8.73;;
14858;SDS011;7521;51.700;6.874;2023-03-01T05:19:48;16.30;;;8.82;;
14858;SDS011;7521;51.700;6.874;2023-03-01T05:22:55;12.67;;;8.07;;
14858;SDS011;7521;51.700;6.874;2023-03-01T05:26:02;12.77;;;9.00;;
14858;SDS011;7521;51.700;6.874;2023-03-01T05:29:08;13.07;;;8.20;;
14858;SDS011;7521;51.700;6.874;2023-03-01T05:32:14;12.77;;;7.90;;
14858;SDS011;7521;51.700;6.874;2023-03-01T05:35:21;11.40;;;7.37;;
14858;SDS011;7521;51.700;6.874;2023-03-01T05:38:26;14.80;;;8.30;;
14858;SDS011;7521;51.700;6.874;2023-03-01T05:41:31;12.52;;;8.23;;
14858;SDS011;7521;51.700;6.874;2023-03-01T05:44:36;14.97;;;8.60;;
14858;SDS011;7521;51.700;6.874;2023-03-01T05:47:42;13.87;;;8.60;;
14858;SDS011;7521;51.700;6.874;2023-03-01T05:50:50;12.40;;;8.40;;
14858;SDS011;7521;51.700;6.874;2023-03-01T05:53:56;12.27;;;8.37;;
14858;SDS011;7521;51.700;6.874;2023-03-01T05:57:01;12.48;;;7.68;;
14858;SDS011;7521;51.700;6.874;2023-03-01T06:00:07;11.48;;;8.60;;
14858;SDS011;7521;51.700;6.874;2023-03-01T06:03:12;13.43;;;7.67;;
14858;SDS011;7521;51.700;6.874;2023-03-01T06:06:18;11.67;;;7.23;;
14858;SDS011;7521;51.700;6.874;2023-03-01T06:09:23;12.55;;;8.38;;
14858;SDS011;7521;51.700;6.874;2023-03-01T06:12:32;12.17;;;8.10;;
14858;SDS011;7521;51.700;6.874;2023-03-01T06:15:37;13.13;;;8.30;;
14858;SDS011;7521;51.700;6.874;2023-03-01T06:18:42;12.60;;;8.00;;
14858;SDS011;7521;51.700;6.874;2023-03-01T06:21:48;14.87;;;8.53;;
14858;SDS011;7521;51.700;6.874;2023-03-01T06:24:53;15.02;;;8.63;;
14858;SDS011;7521;51.700;6.874;2023-03-01T06:27:58;15.93;;;8.05;;
14858;SDS011;7521;51.700;6.874;2023-03-01T06:31:03;12.23;;;8.43;;
14858;SDS011;7521;51.700;6.874;2023-03-01T06:34:08;12.80;;;8.43;;
14858;SDS011;7521;51.700;6.874;2023-03-01T06:37:15;14.57;;;8.90;;
14858;SDS011;7521;51.700;6.874;2023-03-01T06:40:21;12.32;;;8.27;;
14858;SDS011;7521;51.700;6.874;2023-03-01T06:43:26;16.27;;;8.70;;
14858;SDS011;7521;51.700;6.874;2023-03-01T06:46:32;12.38;;;8.02;;
14858;SDS011;7521;51.700;6.874;2023-03-01T06:49:37;11.98;;;8.27;;
14858;SDS011;7521;51.700;6.874;2023-03-01T06:52:42;11.45;;;8.63;;
14858;SDS011;7521;51.700;6.874;2023-03-01T06:55:53;17.90;;;7.70;;
14858;SDS011;7521;51.700;6.874;2023-03-01T06:58:58;16.27;;;8.07;;
14858;SDS011;7521;51.700;6.874;2023-03-01T07:02:04;14.93;;;8.45;;
14858;SDS011;7521;51.700;6.874;2023-03-01T07:05:09;16.13;;;8.50;;
14858;SDS011;7521;51.700;6.874;2023-03-01T07:08:14;15.40;;;8.50;;
14858;SDS011;7521;51.700;6.874;2023-03-01T07:11:19;12.88;;;8.38;;
14858;SDS011;7521;51.700;6.874;2023-03-01T07:14:24;11.63;;;7.80;;
14858;SDS011;7521;51.700;6.874;2023-03-01T07:17:30;14.80;;;8.27;;
14858;SDS011;7521;51.700;6.874;2023-03-01T07:20:35;11.38;;;7.68;;
14858;SDS011;7521;51.700;6.874;2023-03-01T07:23:41;15.97;;;8.43;;
14858;SDS011;7521;51.700;6.874;2023-03-01T07:26:49;12.53;;;9.17;;
14858;SDS011;7521;51.700;6.874;2023-03-01T07:29:55;11.23;;;8.07;;
14858;SDS011;7521;51.700;6.874;2023-03-01T07:33:00;12.45;;;7.55;;
14858;SDS011;7521;51.700;6.874;2023-03-01T07:36:05;13.00;;;8.27;;
14858;SDS011;7521;51.700;6.874;2023-03-01T07:39:11;15.33;;;8.63;;
14858;SDS011;7521;51.700;6.874;2023-03-01T07:42:16;11.55;;;7.93;;
14858;SDS011;7521;51.700;6.874;2023-03-01T07:45:21;12.57;;;7.68;;
14858;SDS011;7521;51.700;6.874;2023-03-01T07:48:27;14.33;;;8.13;;
14858;SDS011;7521;51.700;6.874;2023-03-01T07:51:32;11.77;;;8.03;;
14858;SDS011;7521;51.700;6.874;2023-03-01T07:54:38;13.53;;;7.77;;
14858;SDS011;7521;51.700;6.874;2023-03-01T07:57:43;11.27;;;7.43;;
14858;SDS011;7521;51.700;6.874;2023-03-01T08:00:48;14.57;;;8.75;;
14858;SDS011;7521;51.700;6.874;2023-03-01T08:03:53;15.48;;;8.93;;
14858;SDS011;7521;51.700;6.874;2023-03-01T08:06:58;13.43;;;7.88;;
14858;SDS011;7521;51.700;6.874;2023-03-01T08:10:03;10.90;;;7.30;;
14858;SDS011;7521;51.700;6.874;2023-03-01T08:13:09;13.33;;;7.57;;
14858;SDS011;7521;51.700;6.874;2023-03-01T08:16:14;11.45;;;7.00;;
14858;SDS011;7521;51.700;6.874;2023-03-01T08:19:19;11.77;;;8.43;;
14858;SDS011;7521;51.700;6.874;2023-03-01T08:22:25;9.93;;;6.73;;
14858;SDS011;7521;51.700;6.874;2023-03-01T08:25:30;12.88;;;7.47;;
14858;SDS011;7521;51.700;6.874;2023-03-01T08:28:35;9.95;;;7.45;;
14858;SDS011;7521;51.700;6.874;2023-03-01T08:31:40;9.90;;;7.22;;
14858;SDS011;7521;51.700;6.874;2023-03-01T08:34:46;12.73;;;7.73;;
14858;SDS011;7521;51.700;6.874;2023-03-01T08:37:51;10.50;;;6.87;;
14858;SDS011;7521;51.700;6.874;2023-03-01T08:40:58;12.55;;;7.50;;
14858;SDS011;7521;51.700;6.874;2023-03-01T08:44:04;14.03;;;8.07;;
14858;SDS011;7521;51.700;6.874;2023-03-01T08:47:09;11.93;;;7.07;;
14858;SDS011;7521;51.700;6.874;2023-03-01T08:50:14;9.68;;;6.70;;
14858;SDS011;7521;51.700;6.874;2023-03-01T08:53:19;10.73;;;7.40;;
14858;SDS011;7521;51.700;6.874;2023-03-01T08:56:24;9.77;;;6.77;;
14858;SDS011;7521;51.700;6.874;2023-03-01T08:59:30;10.48;;;6.65;;
14858;SDS011;7521;51.700;6.874;2023-03-01T09:02:35;10.37;;;7.20;;
14858;SDS011;7521;51.700;6.874;2023-03-01T09:05:40;8.73;;;6.55;;
14858;SDS011;7521;51.700;6.874;2023-03-01T09:08:47;10.57;;;7.40;;
14858;SDS011;7521;51.700;6.874;2023-03-01T09:11:52;9.40;;;6.43;;
14858;SDS011;7521;51.700;6.874;2023-03-01T09:14:57;9.95;;;6.32;;
14858;SDS011;7521;51.700;6.874;2023-03-01T09:18:02;9.45;;;6.00;;
14858;SDS011;7521;51.700;6.874;2023-03-01T09:21:11;8.90;;;6.23;;
14858;SDS011;7521;51.700;6.874;2023-03-01T09:24:18;9.00;;;5.70;;
14858;SDS011;7521;51.700;6.874;2023-03-01T09:27:23;11.93;;;6.43;;
14858;SDS011;7521;51.700;6.874;2023-03-01T09:30:30;12.77;;;6.87;;
14858;SDS011;7521;51.700;6.874;2023-03-01T09:33:35;7.77;;;5.80;;
14858;SDS011;7521;51.700;6.874;2023-03-01T09:36:40;8.75;;;5.80;;
14858;SDS011;7521;51.700;6.874;2023-03-01T09:39:45;10.50;;;5.93;;
14858;SDS011;7521;51.700;6.874;2023-03-01T09:42:55;10.40;;;5.97;;
14858;SDS011;7521;51.700;6.874;2023-03-01T09:46:05;8.07;;;5.27;;
14858;SDS011;7521;51.700;6.874;2023-03-01T09:49:19;9.03;;;5.53;;
14858;SDS011;7521;51.700;6.874;2023-03-01T09:52:42;7.73;;;5.23;;
14858;SDS011;7521;51.700;6.874;2023-03-01T09:59:17;10.17;;;5.90;;
14858;SDS011;7521;51.700;6.874;2023-03-01T10:02:30;9.17;;;5.40;;
14858;SDS011;7521;51.700;6.874;2023-03-01T10:08:54;8.25;;;5.72;;
14858;SDS011;7521;51.700;6.874;2023-03-01T10:12:00;7.37;;;5.43;;
14858;SDS011;7521;51.700;6.874;2023-03-01T10:15:20;10.57;;;5.77;;
14858;SDS011;7521;51.700;6.874;2023-03-01T10:18:28;8.40;;;5.47;;
14858;SDS011;7521;51.700;6.874;2023-03-01T10:21:36;7.77;;;5.63;;
14858;SDS011;7521;51.700;6.874;2023-03-01T10:24:45;8.73;;;6.13;;
14858;SDS011;7521;51.700;6.874;2023-03-01T10:27:52;9.73;;;5.77;;
14858;SDS011;7521;51.700;6.874;2023-03-01T10:30:58;8.00;;;5.70;;
14858;SDS011;7521;51.700;6.874;2023-03-01T10:34:11;10.27;;;5.70;;
14858;SDS011;7521;51.700;6.874;2023-03-01T10:37:17;9.80;;;5.17;;
14858;SDS011;7521;51.700;6.874;2023-03-01T10:40:25;10.23;;;5.50;;
14858;SDS011;7521;51.700;6.874;2023-03-01T10:43:32;8.38;;;5.50;;
14858;SDS011;7521;51.700;6.874;2023-03-01T10:46:45;11.40;;;6.20;;
14858;SDS011;7521;51.700;6.874;2023-03-01T10:53:04;9.70;;;6.00;;
14858;SDS011;7521;51.700;6.874;2023-03-01T10:59:28;7.93;;;5.15;;
14858;SDS011;7521;51.700;6.874;2023-03-01T11:02:33;8.93;;;5.93;;
14858;SDS011;7521;51.700;6.874;2023-03-01T11:05:52;8.43;;;5.63;;
14858;SDS011;7521;51.700;6.874;2023-03-01T11:09:01;8.17;;;5.67;;
14858;SDS011;7521;51.700;6.874;2023-03-01T11:12:17;11.00;;;6.43;;
14858;SDS011;7521;51.700;6.874;2023-03-01T11:15:24;8.85;;;5.53;;
14858;SDS011;7521;51.700;6.874;2023-03-01T11:18:30;8.00;;;5.10;;
14858;SDS011;7521;51.700;6.874;2023-03-01T11:21:36;8.30;;;5.70;;
14858;SDS011;7521;51.700;6.874;2023-03-01T11:27:48;7.20;;;5.13;;
14858;SDS011;7521;51.700;6.874;2023-03-01T11:31:06;8.97;;;5.63;;
14858;SDS011;7521;51.700;6.874;2023-03-01T11:34:14;8.10;;;5.67;;
14858;SDS011;7521;51.700;6.874;2023-03-01T11:37:30;8.80;;;6.07;;
14858;SDS011;7521;51.700;6.874;2023-03-01T11:40:39;9.73;;;6.17;;
14858;SDS011;7521;51.700;6.874;2023-03-01T11:43:52;11.40;;;5.70;;
14858;SDS011;7521;51.700;6.874;2023-03-01T11:56:34;12.60;;;6.90;;
14858;SDS011;7521;51.700;6.874;2023-03-01T12:16:05;10.83;;;6.70;;
14858;SDS011;7521;51.700;6.874;2023-03-01T12:19:15;10.63;;;6.73;;
14858;SDS011;7521;51.700;6.874;2023-03-01T12:22:34;9.53;;;6.40;;
14858;SDS011;7521;51.700;6.874;2023-03-01T12:28:51;9.60;;;5.90;;
14858;SDS011;7521;51.700;6.874;2023-03-01T12:44:49;11.00;;;6.77;;
14858;SDS011;7521;51.700;6.874;2023-03-01T12:48:15;11.20;;;7.03;;
14858;SDS011;7521;51.700;6.874;2023-03-01T12:51:24;12.23;;;7.50;;
14858;SDS011;7521;51.700;6.874;2023-03-01T12:54:30;11.97;;;7.30;;
14858;SDS011;7521;51.700;6.874;2023-03-01T12:57:38;11.03;;;7.37;;
14858;SDS011;7521;51.700;6.874;2023-03-01T13:00:46;11.37;;;7.57;;
14858;SDS011;7521;51.700;6.874;2023-03-01T13:10:43;12.30;;;7.63;;
14858;SDS011;7521;51.700;6.874;2023-03-01T13:13:50;10.50;;;7.93;;
14858;SDS011;7521;51.700;6.874;2023-03-01T13:16:56;11.90;;;7.90;;
14858;SDS011;7521;51.700;6.874;2023-03-01T13:20:01;16.77;;;8.75;;
14858;SDS011;7521;51.700;6.874;2023-03-01T13:26:16;12.57;;;8.47;;
14858;SDS011;7521;51.700;6.874;2023-03-01T13:29:25;13.13;;;9.17;;
14858;SDS011;7521;51.700;6.874;2023-03-01T13:35:44;15.00;;;8.70;;
14858;SDS011;7521;51.700;6.874;2023-03-01T13:42:00;13.03;;;8.40;;
14858;SDS011;7521;51.700;6.874;2023-03-01T13:45:13;13.82;;;9.10;;
14858;SDS011;7521;51.700;6.874;2023-03-01T13:48:27;14.43;;;8.73;;
14858;SDS011;7521;51.700;6.874;2023-03-01T13:51:33;15.87;;;8.50;;
14858;SDS011;7521;51.700;6.874;2023-03-01T13:54:38;14.03;;;9.10;;
14858;SDS011;7521;51.700;6.874;2023-03-01T13:57:48;15.73;;;8.75;;
14858;SDS011;7521;51.700;6.874;2023-03-01T14:01:02;14.27;;;8.37;;
14858;SDS011;7521;51.700;6.874;2023-03-01T14:04:18;12.97;;;8.13;;
14858;SDS011;7521;51.700;6.874;2023-03-01T14:07:27;13.80;;;7.93;;
14858;SDS011;7521;51.700;6.874;2023-03-01T14:10:39;11.27;;;8.33;;
14858;SDS011;7521;51.700;6.874;2023-03-01T14:23:24;12.13;;;8.10;;
14858;SDS011;7521;51.700;6.874;2023-03-01T14:26:29;20.20;;;9.57;;
14858;SDS011;7521;51.700;6.874;2023-03-01T14:29:36;13.33;;;8.07;;
14858;SDS011;7521;51.700;6.874;2023-03-01T14:32:42;12.33;;;8.70;;
14858;SDS011;7521;51.700;6.874;2023-03-01T14:35:54;18.75;;;9.90;;
14858;SDS011;7521;51.700;6.874;2023-03-01T14:39:00;12.83;;;7.97;;
14858;SDS011;7521;51.700;6.874;2023-03-01T14:42:09;13.33;;;8.20;;
14858;SDS011;7521;51.700;6.874;2023-03-01T14:45:14;12.80;;;7.65;;
14858;SDS011;7521;51.700;6.874;2023-03-01T14:48:20;12.53;;;7.77;;
14858;SDS011;7521;51.700;6.874;2023-03-01T14:51:26;11.37;;;7.20;;
14858;SDS011;7521;51.700;6.874;2023-03-01T14:54:52;15.37;;;7.30;;
14858;SDS011;7521;51.700;6.874;2023-03-01T14:57:56;15.73;;;7.03;;
14858;SDS011;7521;51.700;6.874;2023-03-01T15:01:03;10.50;;;7.20;;
14858;SDS011;7521;51.700;6.874;2023-03-01T15:04:10;10.37;;;7.53;;
14858;SDS011;7521;51.700;6.874;2023-03-01T15:07:16;9.27;;;6.07;;
14858;SDS011;7521;51.700;6.874;2023-03-01T15:10:23;8.57;;;6.30;;
14858;SDS011;7521;51.700;6.874;2023-03-01T15:13:30;12.27;;;6.67;;
14858;SDS011;7521;51.700;6.874;2023-03-01T15:16:38;13.27;;;6.27;;
14858;SDS011;7521;51.700;6.874;2023-03-01T15:19:46;10.53;;;6.33;;
14858;SDS011;7521;51.700;6.874;2023-03-01T15:22:53;9.60;;;6.37;;
14858;SDS011;7521;51.700;6.874;2023-03-01T15:25:58;9.70;;;6.50;;
14858;SDS011;7521;51.700;6.874;2023-03-01T15:29:04;11.50;;;6.70;;
14858;SDS011;7521;51.700;6.874;2023-03-01T15:35:39;10.87;;;5.93;;
14858;SDS011;7521;51.700;6.874;2023-03-01T15:41:56;9.73;;;6.50;;
14858;SDS011;7521;51.700;6.874;2023-03-01T15:48:22;10.00;;;5.93;;
14858;SDS011;7521;51.700;6.874;2023-03-01T15:51:34;8.37;;;5.83;;
14858;SDS011;7521;51.700;6.874;2023-03-01T15:54:40;8.83;;;5.90;;
14858;SDS011;7521;51.700;6.874;2023-03-01T15:57:45;8.83;;;6.23;;
14858;SDS011;7521;51.700;6.874;2023-03-01T16:00:51;7.50;;;5.67;;
14858;SDS011;7521;51.700;6.874;2023-03-01T16:04:00;8.33;;;5.30;;
14858;SDS011;7521;51.700;6.874;2023-03-01T16:07:06;9.70;;;5.63;;
14858;SDS011;7521;51.700;6.874;2023-03-01T16:10:11;10.47;;;5.73;;
14858;SDS011;7521;51.700;6.874;2023-03-01T16:13:16;9.70;;;5.78;;
14858;SDS011;7521;51.700;6.874;2023-03-01T16:16:22;7.90;;;5.63;;
14858;SDS011;7521;51.700;6.874;2023-03-01T16:19:27;10.03;;;5.33;;
14858;SDS011;7521;51.700;6.874;2023-03-01T16:22:32;8.73;;;5.57;;
14858;SDS011;7521;51.700;6.874;2023-03-01T16:25:37;8.30;;;5.72;;
14858;SDS011;7521;51.700;6.874;2023-03-01T16:28:43;11.07;;;6.13;;
14858;SDS011;7521;51.700;6.874;2023-03-01T16:31:48;9.63;;;5.97;;
14858;SDS011;7521;51.700;6.874;2023-03-01T16:34:53;10.23;;;5.80;;
14858;SDS011;7521;51.700;6.874;2023-03-01T16:37:59;14.18;;;6.43;;
14858;SDS011;7521;51.700;6.874;2023-03-01T16:41:04;10.87;;;6.33;;
14858;SDS011;7521;51.700;6.874;2023-03-01T16:44:09;8.20;;;5.67;;
14858;SDS011;7521;51.700;6.874;2023-03-01T16:47:14;8.52;;;5.90;;
14858;SDS011;7521;51.700;6.874;2023-03-01T16:50:20;9.53;;;5.73;;
14858;SDS011;7521;51.700;6.874;2023-03-01T16:53:25;9.07;;;5.80;;
14858;SDS011;7521;51.700;6.874;2023-03-01T16:56:30;11.30;;;5.53;;
14858;SDS011;7521;51.700;6.874;2023-03-01T16:59:37;10.33;;;5.60;;
14858;SDS011;7521;51.700;6.874;2023-03-01T17:02:42;9.18;;;5.70;;
14858;SDS011;7521;51.700;6.874;2023-03-01T17:05:47;13.88;;;5.60;;
14858;SDS011;7521;51.700;6.874;2023-03-01T17:08:53;8.60;;;5.67;;
14858;SDS011;7521;51.700;6.874;2023-03-01T17:11:58;8.20;;;6.10;;
14858;SDS011;7521;51.700;6.874;2023-03-01T17:15:04;10.45;;;5.78;;
14858;SDS011;7521;51.700;6.874;2023-03-01T17:18:09;11.13;;;6.20;;
14858;SDS011;7521;51.700;6.874;2023-03-01T17:21:14;9.55;;;5.72;;
14858;SDS011;7521;51.700;6.874;2023-03-01T17:24:20;10.10;;;6.40;;
14858;SDS011;7521;51.700;6.874;2023-03-01T17:27:25;8.60;;;6.43;;
14858;SDS011;7521;51.700;6.874;2023-03-01T17:30:30;9.37;;;6.13;;
14858;SDS011;7521;51.700;6.874;2023-03-01T17:33:35;11.80;;;5.60;;
14858;SDS011;7521;51.700;6.874;2023-03-01T17:36:41;9.53;;;5.73;;
14858;SDS011;7521;51.700;6.874;2023-03-01T17:39:47;9.10;;;6.30;;
14858;SDS011;7521;51.700;6.874;2023-03-01T17:42:53;10.77;;;5.80;;
14858;SDS011;7521;51.700;6.874;2023-03-01T17:45:58;7.40;;;5.60;;
14858;SDS011;7521;51.700;6.874;2023-03-01T17:49:03;11.45;;;5.50;;
14858;SDS011;7521;51.700;6.874;2023-03-01T17:52:08;10.45;;;5.85;;
14858;SDS011;7521;51.700;6.874;2023-03-01T17:55:13;8.68;;;5.60;;
14858;SDS011;7521;51.700;6.874;2023-03-01T17:58:19;10.10;;;6.30;;
14858;SDS011;7521;51.700;6.874;2023-03-01T18:01:26;10.17;;;5.60;;
14858;SDS011;7521;51.700;6.874;2023-03-01T18:04:31;9.73;;;5.60;;
14858;SDS011;7521;51.700;6.874;2023-03-01T18:07:37;8.82;;;5.95;;
14858;SDS011;7521;51.700;6.874;2023-03-01T18:10:42;8.70;;;5.60;;
14858;SDS011;7521;51.700;6.874;2023-03-01T18:13:47;8.95;;;5.63;;
14858;SDS011;7521;51.700;6.874;2023-03-01T18:16:53;10.40;;;5.13;;
14858;SDS011;7521;51.700;6.874;2023-03-01T18:19:58;9.70;;;6.32;;
14858;SDS011;7521;51.700;6.874;2023-03-01T18:23:03;10.13;;;5.93;;
14858;SDS011;7521;51.700;6.874;2023-03-01T18:26:09;9.50;;;5.70;;
14858;SDS011;7521;51.700;6.874;2023-03-01T18:29:15;9.00;;;5.03;;
14858;SDS011;7521;51.700;6.874;2023-03-01T18:32:20;9.57;;;5.20;;
14858;SDS011;7521;51.700;6.874;2023-03-01T18:35:25;10.67;;;6.13;;
14858;SDS011;7521;51.700;6.874;2023-03-01T18:38:31;9.43;;;5.23;;
14858;SDS011;7521;51.700;6.874;2023-03-01T18:41:36;12.73;;;7.70;;
14858;SDS011;7521;51.700;6.874;2023-03-01T18:44:41;15.00;;;7.07;;
14858;SDS011;7521;51.700;6.874;2023-03-01T18:47:47;20.27;;;13.10;;
14858;SDS011;7521;51.700;6.874;2023-03-01T18:50:53;10.77;;;7.87;;
14858;SDS011;7521;51.700;6.874;2023-03-01T18:53:59;10.80;;;6.00;;
14858;SDS011;7521;51.700;6.874;2023-03-01T18:57:04;8.43;;;5.50;;
14858;SDS011;7521;51.700;6.874;2023-03-01T19:00:09;7.78;;;4.93;;
14858;SDS011;7521;51.700;6.874;2023-03-01T19:03:14;11.73;;;5.33;;
14858;SDS011;7521;51.700;6.874;2023-03-01T19:06:20;9.80;;;4.93;;
14858;SDS011;7521;51.700;6.874;2023-03-01T19:09:25;9.93;;;5.53;;
14858;SDS011;7521;51.700;6.874;2023-03-01T19:12:30;8.85;;;5.35;;
14858;SDS011;7521;51.700;6.874;2023-03-01T19:15:35;8.50;;;5.23;;
14858;SDS011;7521;51.700;6.874;2023-03-01T19:18:41;12.03;;;6.40;;
14858;SDS011;7521;51.700;6.874;2023-03-01T19:21:46;6.73;;;4.63;;
14858;SDS011;7521;51.700;6.874;2023-03-01T19:24:52;8.20;;;5.80;;
14858;SDS011;7521;51.700;6.874;2023-03-01T19:27:57;10.63;;;5.20;;
14858;SDS011;7521;51.700;6.874;2023-03-01T19:31:03;12.18;;;5.63;;
14858;SDS011;7521;51.700;6.874;2023-03-01T19:34:09;7.63;;;5.23;;
14858;SDS011;7521;51.700;6.874;2023-03-01T19:37:14;9.90;;;5.53;;
14858;SDS011;7521;51.700;6.874;2023-03-01T19:40:19;8.35;;;4.88;;
14858;SDS011;7521;51.700;6.874;2023-03-01T19:43:24;7.63;;;4.70;;
14858;SDS011;7521;51.700;6.874;2023-03-01T19:46:30;10.05;;;5.20;;
14858;SDS011;7521;51.700;6.874;2023-03-01T19:49:35;7.93;;;4.67;;
14858;SDS011;7521;51.700;6.874;2023-03-01T19:52:41;7.63;;;5.07;;
14858;SDS011;7521;51.700;6.874;2023-03-01T19:55:47;7.45;;;4.75;;
14858;SDS011;7521;51.700;6.874;2023-03-01T19:58:52;6.97;;;4.70;;
14858;SDS011;7521;51.700;6.874;2023-03-01T20:02:04;8.10;;;4.90;;
14858;SDS011;7521;51.700;6.874;2023-03-01T20:05:09;9.15;;;4.65;;
14858;SDS011;7521;51.700;6.874;2023-03-01T20:08:14;8.97;;;4.83;;
14858;SDS011;7521;51.700;6.874;2023-03-01T20:11:19;9.40;;;5.00;;
14858;SDS011;7521;51.700;6.874;2023-03-01T20:14:25;8.97;;;4.87;;
14858;SDS011;7521;51.700;6.874;2023-03-01T20:17:30;7.32;;;4.85;;
14858;SDS011;7521;51.700;6.874;2023-03-01T20:20:35;9.90;;;4.40;;
14858;SDS011;7521;51.700;6.874;2023-03-01T20:23:40;9.60;;;5.30;;
14858;SDS011;7521;51.700;6.874;2023-03-01T20:26:46;10.02;;;5.97;;
14858;SDS011;7521;51.700;6.874;2023-03-01T20:29:51;9.13;;;5.35;;